Time;durP1;ratioP1;P1;durP2;ratioP2;P2;SDS_P1;SDS_P2;PMS_P1;PMS_P2;Temp;Humidity;BMP_temperature;BMP_pressure;BME280_temperature;BME280_humidity;BME280_pressure;Samples;Min_cycle;Max_cycle;Signal;HPM_P1;HPM_P2
2022/01/26 00:06:09;;;;;;;;;;;;;;;-5.41;56.63;100546.50;5095353;28;605;-56
2022/01/26 00:08:36;;;;;;;;;;;;;;;-5.47;56.74;100542.22;5095466;28;1172;-56
2022/01/26 00:11:03;;;;;;;;;;;;;;;-5.70;57.82;100547.13;5096118;28;767;-56
2022/01/26 00:13:30;;;;;;;;;;;;;;;-5.84;58.41;100538.84;5095232;28;822;-56
2022/01/26 00:15:59;;;;;;;;;;;;;;;-5.94;58.51;100549.66;5095106;28;1356;-57
2022/01/26 00:18:29;;;;;;;;;;;;;;;-6.31;60.46;100547.38;5095173;28;1909;-56
2022/01/26 00:21:04;;;;;;;;;;;;;;;-6.57;61.18;100550.09;5095082;28;846;-57
2022/01/26 00:26:34;;;;;;;;;;;;;;;-6.82;62.97;100546.31;5094867;28;671;-56
2022/01/26 00:29:13;;;;;;;;;;;;;;;-6.88;62.95;100542.00;5094889;28;1204;-56
2022/01/26 00:40:01;;;;;;;;;;;;;;;-7.12;64.80;100538.22;5094958;28;672;-56
2022/01/26 00:42:33;;;;;;;;;;;;;;;-7.19;64.89;100536.59;5094933;28;839;-57
2022/01/26 00:45:00;;;;;;;;;;;;;;;-7.30;65.48;100528.78;5095357;28;802;-57
2022/01/26 00:47:26;;;;;;;;;;;;;;;-7.36;65.26;100529.84;5094539;28;1228;-57
2022/01/26 00:49:58;;;;;;;;;;;;;;;-7.44;64.86;100534.66;5094434;28;881;-56
2022/01/26 00:52:37;;;;;;;;;;;;;;;-7.23;65.04;100521.28;5094486;28;831;-57
2022/01/26 00:55:05;;;;;;;;;;;;;;;-6.89;63.00;100523.44;5094408;28;897;-57
2022/01/26 00:57:31;;;;;;;;;;;;;;;-6.71;62.13;100522.13;5094383;28;1952;-57
2022/01/26 00:59:59;;;;;;;;;;;;;;;-6.74;61.95;100525.31;5094341;28;854;-57
2022/01/26 01:02:26;;;;;;;;;;;;;;;-6.65;61.35;100521.84;5093469;28;913;-57
2022/01/26 01:04:56;;;;;;;;;;;;;;;-6.51;61.17;100518.59;5094169;28;822;-57
2022/01/26 01:07:23;;;;;;;;;;;;;;;-6.57;60.73;100520.50;5094110;28;945;-57
2022/01/26 01:09:50;;;;;;;;;;;;;;;-6.53;61.24;100521.53;5094101;28;870;-57
2022/01/26 01:12:16;;;;;;;;;;;;;;;-6.59;60.69;100511.91;5094298;28;913;-57
2022/01/26 01:14:44;;;;;;;;;;;;;;;-6.55;60.71;100509.44;5094008;28;897;-57
2022/01/26 01:17:21;;;;;;;;;;;;;;;-6.64;61.03;100512.69;5093668;28;1910;-57
2022/01/26 01:20:06;;;;;;;;;;;;;;;-6.87;62.17;100510.53;5093925;28;894;-57
2022/01/26 01:30:30;;;;;;;;;;;;;;;-7.91;65.57;100502.56;5093730;28;1332;-56
2022/01/26 01:33:08;;;;;;;;;;;;;;;-7.37;64.56;100504.06;5094387;28;794;-56
2022/01/26 01:35:36;;;;;;;;;;;;;;;-6.98;62.17;100507.03;5093557;28;866;-57
2022/01/26 01:38:18;;;;;;;;;;;;;;;-6.85;62.54;100497.63;5093527;28;1882;-57
2022/01/26 01:40:49;;;;;;;;;;;;;;;-6.68;61.75;100500.84;5092055;28;1352;-56
2022/01/26 01:43:17;;;;;;;;;;;;;;;-6.68;61.11;100500.84;5093747;28;827;-57
2022/01/26 01:45:47;;;;;;;;;;;;;;;-6.85;62.11;100498.47;5093705;28;849;-57
2022/01/26 01:48:18;;;;;;;;;;;;;;;-6.88;61.63;100490.13;5093440;28;806;-56
2022/01/26 01:50:46;;;;;;;;;;;;;;;-6.91;61.88;100494.16;5093357;28;802;-56
2022/01/26 01:53:15;;;;;;;;;;;;;;;-7.02;61.71;100489.84;5093306;28;842;-57
2022/01/26 01:55:51;;;;;;;;;;;;;;;-7.07;62.40;100493.34;5093657;28;858;-57
2022/01/26 01:58:18;;;;;;;;;;;;;;;-7.06;62.23;100481.53;5093004;28;1886;-56
2022/01/26 02:00:45;;;;;;;;;;;;;;;-7.10;61.64;100482.34;5093183;28;818;-56
2022/01/26 02:03:12;;;;;;;;;;;;;;;-7.13;62.54;100480.97;5093099;28;889;-57
2022/01/26 02:05:38;;;;;;;;;;;;;;;-7.21;62.39;100479.63;5093065;28;865;-57
2022/01/26 02:08:04;;;;;;;;;;;;;;;-7.33;62.52;100479.09;5092986;28;803;-56
2022/01/26 02:10:33;;;;;;;;;;;;;;;-7.26;62.71;100476.13;5092901;28;858;-57
2022/01/26 02:13:02;;;;;;;;;;;;;;;-7.22;62.33;100469.16;5092843;28;1022;-57
2022/01/26 02:15:56;;;;;;;;;;;;;;;-7.06;62.17;100465.41;5092846;28;1046;-57
2022/01/26 02:56:21;;;;;;;;;;;;;;;-8.50;65.97;100450.00;5092079;28;668;-57
2022/01/26 03:01:53;;;;;;;;;;;;;;;-8.25;65.85;100450.09;5068584;28;1283;-56
2022/01/26 03:06:55;;;;;;;;;;;;;;;-8.76;67.33;100443.69;5092164;28;804;-57
2022/01/26 03:09:26;;;;;;;;;;;;;;;-8.81;67.57;100439.09;5091823;28;1042;-57
2022/01/26 03:11:53;;;;;;;;;;;;;;;-8.82;67.75;100428.63;5091920;28;905;-57
2022/01/26 03:14:41;;;;;;;;;;;;;;;-8.82;68.27;100439.34;5091774;28;952;-57
2022/01/26 03:20:01;;;;;;;;;;;;;;;-8.44;67.46;100428.31;5062666;28;1227;-57
2022/01/26 03:31:04;;;;;;;;;;;;;;;-7.95;66.26;100427.13;5091672;28;740;-57
2022/01/26 03:33:50;;;;;;;;;;;;;;;-7.65;65.20;100431.78;5091671;28;1849;-57
2022/01/26 03:36:12;;;;;;;;;;;;;;;-7.52;64.06;100440.38;5091534;28;1552;-57
2022/01/26 03:38:44;;;;;;;;;;;;;;;-7.63;64.61;100435.00;5091494;28;1906;-57
2022/01/26 03:43:39;;;;;;;;;;;;;;;-7.99;65.87;100427.94;5091510;28;942;-57
2022/01/26 03:46:06;;;;;;;;;;;;;;;-8.11;65.38;100418.22;5091485;28;846;-57
2022/01/26 03:48:33;;;;;;;;;;;;;;;-7.88;65.79;100419.63;5091370;28;886;-57
2022/01/26 03:50:59;;;;;;;;;;;;;;;-7.82;64.68;100425.84;5091476;28;913;-57
2022/01/26 03:53:26;;;;;;;;;;;;;;;-7.85;65.22;100426.34;5091364;28;865;-57
2022/01/26 03:55:52;;;;;;;;;;;;;;;-8.07;65.89;100421.19;5091394;28;952;-57
2022/01/26 03:58:19;;;;;;;;;;;;;;;-8.21;65.87;100423.56;5091638;28;1881;-57
2022/01/26 04:00:45;;;;;;;;;;;;;;;-8.27;66.09;100420.06;5091381;28;866;-57
2022/01/26 04:03:11;;;;;;;;;;;;;;;-8.27;66.30;100421.94;5091341;28;877;-57
2022/01/26 04:05:38;;;;;;;;;;;;;;;-8.05;65.69;100425.22;5091510;28;901;-57
2022/01/26 04:08:11;;;;;;;;;;;;;;;-7.66;65.24;100432.03;5091294;28;866;-57
2022/01/26 04:10:52;;;;;;;;;;;;;;;-7.73;64.83;100432.28;5091381;28;889;-57
2022/01/26 04:13:19;;;;;;;;;;;;;;;-7.90;65.25;100429.81;5091274;28;854;-57
2022/01/26 04:15:45;;;;;;;;;;;;;;;-8.08;65.57;100423.06;5091077;28;1357;-57
2022/01/26 04:18:17;;;;;;;;;;;;;;;-8.16;66.21;100426.25;5091207;28;1977;-57
2022/01/26 04:20:47;;;;;;;;;;;;;;;-8.13;65.77;100433.75;5091245;28;838;-57
2022/01/26 04:23:20;;;;;;;;;;;;;;;-8.18;66.25;100422.22;5091154;28;815;-57
2022/01/26 04:25:49;;;;;;;;;;;;;;;-8.32;66.63;100428.09;5091097;28;827;-57
2022/01/26 04:28:22;;;;;;;;;;;;;;;-8.30;66.85;100425.13;5091102;28;913;-57
2022/01/26 04:30:48;;;;;;;;;;;;;;;-8.09;66.10;100424.13;5091018;28;862;-57
2022/01/26 04:33:15;;;;;;;;;;;;;;;-8.06;66.69;100426.31;5091090;28;838;-57
2022/01/26 04:35:44;;;;;;;;;;;;;;;-8.18;66.80;100425.72;5091261;28;830;-57
2022/01/26 04:38:25;;;;;;;;;;;;;;;-8.06;66.54;100434.34;5094579;28;1881;-57
2022/01/26 04:43:31;;;;;;;;;;;;;;;-8.09;66.63;100429.50;5094645;28;708;-57
2022/01/26 04:45:58;;;;;;;;;;;;;;;-7.95;66.50;100432.50;5093144;28;1546;-57
2022/01/26 04:48:25;;;;;;;;;;;;;;;-7.82;65.33;100432.00;5094540;28;905;-57
2022/01/26 04:50:53;;;;;;;;;;;;;;;-7.82;66.07;100425.84;5094626;28;873;-57
2022/01/26 04:53:20;;;;;;;;;;;;;;;-7.74;64.90;100433.38;5094415;28;862;-57
2022/01/26 04:55:46;;;;;;;;;;;;;;;-7.47;64.48;100429.63;5094337;28;865;-57
2022/01/26 04:58:12;;;;;;;;;;;;;;;-7.33;63.35;100427.25;5094360;28;1894;-57
2022/01/26 05:00:39;;;;;;;;;;;;;;;-7.25;63.97;100422.16;5094280;28;858;-57
2022/01/26 05:03:05;;;;;;;;;;;;;;;-7.24;63.53;100429.13;5094164;28;894;-57
2022/01/26 05:05:32;;;;;;;;;;;;;;;-7.23;63.32;100425.38;5094476;28;885;-57
2022/01/26 05:07:58;;;;;;;;;;;;;;;-7.39;62.84;100431.81;5094150;28;880;-57
2022/01/26 05:10:24;;;;;;;;;;;;;;;-7.72;64.24;100433.09;5094162;28;877;-57
2022/01/26 05:12:51;;;;;;;;;;;;;;;-7.83;65.21;100438.44;5094072;28;822;-57
2022/01/26 05:15:21;;;;;;;;;;;;;;;-7.77;65.08;100428.50;5094045;28;922;-57
2022/01/26 05:17:47;;;;;;;;;;;;;;;-7.65;63.80;100429.09;5093840;28;1985;-57
2022/01/26 05:20:14;;;;;;;;;;;;;;;-7.71;64.72;100421.28;5093939;28;818;-57
2022/01/26 05:22:43;;;;;;;;;;;;;;;-7.86;64.79;100420.19;5093815;28;815;-57
2022/01/26 05:25:10;;;;;;;;;;;;;;;-7.85;65.47;100427.19;5093923;28;822;-57
2022/01/26 05:27:37;;;;;;;;;;;;;;;-7.80;65.84;100418.31;5093804;28;811;-57
2022/01/26 05:30:04;;;;;;;;;;;;;;;-7.55;64.91;100424.78;5093834;28;795;-57
2022/01/26 05:32:31;;;;;;;;;;;;;;;-7.35;64.65;100413.28;5093766;28;869;-57
2022/01/26 05:34:57;;;;;;;;;;;;;;;-7.19;64.13;100414.88;5093631;28;878;-57
2022/01/26 05:37:23;;;;;;;;;;;;;;;-6.95;63.76;100417.03;5093861;28;1949;-57
2022/01/26 05:39:50;;;;;;;;;;;;;;;-6.81;62.85;100413.50;5093560;28;814;-57
2022/01/26 05:42:17;;;;;;;;;;;;;;;-6.60;63.35;100411.56;5093571;28;952;-57
2022/01/26 05:44:46;;;;;;;;;;;;;;;-6.38;62.53;100411.25;5093649;28;862;-57
2022/01/26 05:47:18;;;;;;;;;;;;;;;-6.09;62.36;100407.88;5093081;28;873;-57
2022/01/26 05:49:44;;;;;;;;;;;;;;;-5.89;61.81;100417.72;5093376;28;831;-57
2022/01/26 05:52:11;;;;;;;;;;;;;;;-5.56;60.96;100407.28;5091928;28;1175;-57
2022/01/26 05:54:37;;;;;;;;;;;;;;;-5.20;60.50;100412.41;5093178;28;937;-57
2022/01/26 05:57:04;;;;;;;;;;;;;;;-4.96;59.82;100415.16;5093369;28;1976;-57
2022/01/26 05:59:32;;;;;;;;;;;;;;;-4.68;58.37;100404.66;5093204;28;783;-57
2022/01/26 06:01:58;;;;;;;;;;;;;;;-3.98;57.95;100412.22;5093059;28;875;-56
2022/01/26 06:04:24;;;;;;;;;;;;;;;-3.37;55.64;100421.31;5093159;28;775;-57
2022/01/26 06:06:51;;;;;;;;;;;;;;;-2.70;55.65;100416.41;5092921;28;847;-57
2022/01/26 06:09:18;;;;;;;;;;;;;;;-1.99;53.69;100426.97;5092917;28;925;-57
2022/01/26 06:11:44;;;;;;;;;;;;;;;-1.57;52.13;100416.06;5092915;28;866;-57
2022/01/26 06:14:11;;;;;;;;;;;;;;;-1.47;50.79;100418.53;5092844;28;891;-57
2022/01/26 06:16:37;;;;;;;;;;;;;;;-1.74;51.24;100422.13;5092734;28;1198;-57
2022/01/26 06:19:04;;;;;;;;;;;;;;;-2.46;52.72;100424.34;5092831;28;886;-57
2022/01/26 06:21:31;;;;;;;;;;;;;;;-2.95;53.88;100420.38;5092575;28;897;-57
2022/01/26 06:23:58;;;;;;;;;;;;;;;-3.15;54.52;100420.72;5092659;28;831;-56
2022/01/26 06:26:25;;;;;;;;;;;;;;;-3.01;52.10;100423.47;5091403;28;1681;-56
2022/01/26 06:28:51;;;;;;;;;;;;;;;-2.60;51.21;100420.03;5092626;28;846;-56
2022/01/26 06:31:18;;;;;;;;;;;;;;;-2.40;50.31;100422.38;5092565;28;882;-56
2022/01/26 06:33:47;;;;;;;;;;;;;;;-2.29;49.44;100410.22;5092526;28;814;-56
2022/01/26 06:36:14;;;;;;;;;;;;;;;-2.19;48.81;100411.16;5092543;28;890;-56
2022/01/26 06:38:41;;;;;;;;;;;;;;;-2.16;48.46;100408.63;5092263;28;1959;-56
2022/01/26 06:41:08;;;;;;;;;;;;;;;-2.10;48.26;100402.00;5092431;28;870;-56
2022/01/26 06:43:42;;;;;;;;;;;;;;;-2.08;48.50;100407.13;5092426;28;1013;-56
2022/01/26 06:46:09;;;;;;;;;;;;;;;-2.06;48.04;100403.00;5092239;28;921;-56
2022/01/26 06:49:00;;;;;;;;;;;;;;;-1.96;47.83;100390.31;5092297;28;779;-56
2022/01/26 06:51:26;;;;;;;;;;;;;;;-1.95;47.77;100398.16;5092153;28;1133;-56
2022/01/26 06:53:53;;;;;;;;;;;;;;;-1.92;47.65;100389.44;5092150;28;873;-56
2022/01/26 06:56:19;;;;;;;;;;;;;;;-1.89;47.90;100396.16;5092358;28;814;-56
2022/01/26 06:58:45;;;;;;;;;;;;;;;-1.84;47.77;100385.19;5091390;28;1946;-56
2022/01/26 07:01:11;;;;;;;;;;;;;;;-1.79;47.76;100395.09;5091992;28;811;-56
2022/01/26 07:03:38;;;;;;;;;;;;;;;-1.72;47.70;100392.81;5092033;28;811;-56
2022/01/26 07:06:04;;;;;;;;;;;;;;;-1.65;48.36;100387.75;5091984;28;815;-56
2022/01/26 07:08:30;;;;;;;;;;;;;;;-1.57;47.31;100394.38;5091917;28;831;-56
2022/01/26 07:10:57;;;;;;;;;;;;;;;-1.52;47.51;100377.97;5090621;28;1302;-56
2022/01/26 07:13:26;;;;;;;;;;;;;;;-1.41;47.34;100382.03;5091863;28;815;-56
2022/01/26 07:21:28;;;;;;;;;;;;;;;-1.28;47.34;100385.78;5092109;28;636;-56
2022/01/26 07:23:55;;;;;;;;;;;;;;;-1.21;47.59;100394.31;5091679;28;912;-56
2022/01/26 07:26:27;;;;;;;;;;;;;;;-1.19;47.11;100391.31;5091703;28;972;-56
2022/01/26 07:28:54;;;;;;;;;;;;;;;-1.11;47.52;100387.81;5091949;28;864;-57
2022/01/26 07:31:22;;;;;;;;;;;;;;;-1.10;47.14;100386.72;5092038;28;818;-55
2022/01/26 07:33:53;;;;;;;;;;;;;;;-1.08;47.44;100390.72;5091718;28;969;-56
2022/01/26 07:36:21;;;;;;;;;;;;;;;-1.01;47.21;100386.78;5091645;28;913;-55
2022/01/26 07:38:49;;;;;;;;;;;;;;;-0.95;47.01;100388.25;5091489;28;1982;-56
2022/01/26 07:41:17;;;;;;;;;;;;;;;-0.91;46.64;100400.88;5091509;28;823;-55
2022/01/26 07:43:43;;;;;;;;;;;;;;;-0.76;47.07;100396.19;5091552;28;926;-56
2022/01/26 07:46:10;;;;;;;;;;;;;;;-0.71;46.97;100387.88;5091598;28;810;-55
2022/01/26 07:48:37;;;;;;;;;;;;;;;-0.63;47.14;100392.56;5091353;28;911;-56
2022/01/26 07:51:03;;;;;;;;;;;;;;;-0.53;46.62;100377.91;5091469;28;894;-56
2022/01/26 07:53:29;;;;;;;;;;;;;;;-0.54;46.71;100385.25;5091509;28;901;-58
2022/01/26 07:55:56;;;;;;;;;;;;;;;-0.51;46.83;100383.81;5091459;28;873;-56
2022/01/26 07:58:23;;;;;;;;;;;;;;;-0.39;47.15;100377.78;5091320;28;1902;-56
2022/01/26 08:00:49;;;;;;;;;;;;;;;-0.11;47.21;100381.06;5091442;28;905;-55
2022/01/26 08:03:17;;;;;;;;;;;;;;;-0.10;46.69;100378.03;5091343;28;944;-55
2022/01/26 08:05:44;;;;;;;;;;;;;;;-0.03;46.60;100383.00;5091581;28;932;-56
2022/01/26 08:08:10;;;;;;;;;;;;;;;-0.05;46.53;100391.47;5091329;28;826;-56
2022/01/26 08:10:37;;;;;;;;;;;;;;;-0.03;46.80;100389.22;5092742;28;834;-56
2022/01/26 08:13:03;;;;;;;;;;;;;;;0.25;46.72;100393.59;5095256;28;885;-56
2022/01/26 08:15:29;;;;;;;;;;;;;;;0.45;46.59;100392.97;5095007;28;1213;-56
2022/01/26 08:17:57;;;;;;;;;;;;;;;0.67;46.12;100402.88;5095415;28;1921;-56
2022/01/26 08:20:24;;;;;;;;;;;;;;;0.98;45.76;100396.44;5095045;28;855;-56
2022/01/26 08:22:52;;;;;;;;;;;;;;;1.33;44.82;100396.38;5093745;28;1014;-56
2022/01/26 08:25:19;;;;;;;;;;;;;;;1.58;45.19;100397.38;5095013;28;890;-56
2022/01/26 08:27:53;;;;;;;;;;;;;;;1.53;44.82;100397.56;5094923;28;909;-56
2022/01/26 08:30:20;;;;;;;;;;;;;;;1.47;44.50;100394.22;5094928;28;897;-56
2022/01/26 08:32:47;;;;;;;;;;;;;;;1.15;45.20;100395.59;5094814;28;913;-56
2022/01/26 08:35:13;;;;;;;;;;;;;;;1.35;45.13;100394.13;5094729;28;961;-55
2022/01/26 08:37:40;;;;;;;;;;;;;;;1.50;45.37;100382.69;5094756;28;1889;-56
2022/01/26 08:40:08;;;;;;;;;;;;;;;1.48;44.57;100390.38;5094646;28;957;-57
2022/01/26 08:42:33;;;;;;;;;;;;;;;1.68;45.85;100394.28;5094654;28;822;-55
2022/01/26 08:45:00;;;;;;;;;;;;;;;1.81;45.25;100389.72;5094682;28;902;-56
2022/01/26 08:47:26;;;;;;;;;;;;;;;1.80;44.82;100379.97;5094570;28;859;-56
2022/01/26 08:49:52;;;;;;;;;;;;;;;1.52;45.20;100377.69;5094413;28;843;-56
2022/01/26 08:52:19;;;;;;;;;;;;;;;1.51;44.93;100383.47;5094461;28;790;-56
2022/01/26 08:54:46;;;;;;;;;;;;;;;1.58;45.51;100378.28;5094459;28;950;-56
2022/01/26 08:57:12;;;;;;;;;;;;;;;1.70;45.44;100380.34;5094357;28;1886;-56
2022/01/26 08:59:40;;;;;;;;;;;;;;;1.98;44.65;100365.09;5094267;28;952;-56
2022/01/26 09:02:07;;;;;;;;;;;;;;;2.30;44.46;100365.50;5093069;28;834;-56
2022/01/26 09:04:34;;;;;;;;;;;;;;;2.24;43.79;100356.75;5094287;28;839;-56
2022/01/26 09:07:02;;;;;;;;;;;;;;;2.18;43.55;100357.28;5094214;28;913;-56
2022/01/26 09:09:32;;;;;;;;;;;;;;;2.23;43.89;100359.78;5094205;28;1133;-55
2022/01/26 09:12:00;;;;;;;;;;;;;;;2.06;42.82;100363.44;5094157;28;876;-56
2022/01/26 09:14:29;;;;;;;;;;;;;;;2.06;43.28;100360.72;5094059;28;873;-56
2022/01/26 09:16:55;;;;;;;;;;;;;;;2.02;42.41;100363.28;5093900;28;1977;-58
2022/01/26 09:21:52;;;;;;;;;;;;;;;1.64;42.42;100366.09;5093193;28;888;-57
2022/01/26 09:24:18;;;;;;;;;;;;;;;1.63;42.88;100372.69;5093855;28;926;-56
2022/01/26 09:26:44;;;;;;;;;;;;;;;1.69;42.99;100359.69;5093876;28;802;-56
2022/01/26 09:29:11;;;;;;;;;;;;;;;2.00;43.09;100357.38;5093668;28;910;-56
2022/01/26 09:31:38;;;;;;;;;;;;;;;2.39;42.38;100352.63;5093717;28;922;-56
2022/01/26 09:34:04;;;;;;;;;;;;;;;2.55;41.67;100355.50;5093624;28;926;-56
2022/01/26 09:36:31;;;;;;;;;;;;;;;2.43;41.16;100355.47;5093844;28;929;-58
2022/01/26 09:38:57;;;;;;;;;;;;;;;2.20;41.76;100350.34;5092298;28;1897;-56
2022/01/26 09:41:25;;;;;;;;;;;;;;;2.21;41.77;100354.66;5093635;28;842;-56
2022/01/26 09:43:52;;;;;;;;;;;;;;;2.33;40.97;100348.50;5092215;28;1294;-56
2022/01/26 09:46:18;;;;;;;;;;;;;;;2.36;41.28;100344.28;5093505;28;858;-56
2022/01/26 09:48:45;;;;;;;;;;;;;;;2.29;41.69;100349.50;5093329;28;913;-57
2022/01/26 09:51:13;;;;;;;;;;;;;;;2.25;42.17;100346.63;5093435;28;819;-56
2022/01/26 09:53:39;;;;;;;;;;;;;;;2.31;41.46;100333.59;5093318;28;894;-56
2022/01/26 09:56:06;;;;;;;;;;;;;;;2.32;41.06;100341.41;5092038;28;1678;-56
2022/01/26 09:58:33;;;;;;;;;;;;;;;2.45;41.54;100324.00;5093182;28;1882;-57
2022/01/26 10:01:00;;;;;;;;;;;;;;;2.58;40.52;100324.03;5093057;28;929;-56
2022/01/26 10:03:30;;;;;;;;;;;;;;;2.47;41.01;100317.41;5093184;28;842;-56
2022/01/26 10:05:57;;;;;;;;;;;;;;;2.64;41.23;100323.47;5092931;28;845;-57
2022/01/26 10:08:51;;;;;;;;;;;;;;;2.65;40.88;100327.81;5091754;28;1620;-56
2022/01/26 10:19:04;;;;;;;;;;;;;;;3.68;39.91;100307.00;5093007;28;1977;-57
2022/01/26 10:21:30;;;;;;;;;;;;;;;3.83;40.00;100302.75;5093053;28;815;-57
2022/01/26 10:24:08;;;;;;;;;;;;;;;3.79;39.87;100305.38;5092731;28;838;-57
2022/01/26 10:26:34;;;;;;;;;;;;;;;3.34;40.19;100300.84;5092632;28;902;-57
2022/01/26 10:29:02;;;;;;;;;;;;;;;3.30;40.42;100291.75;5092886;28;866;-58
2022/01/26 10:31:30;;;;;;;;;;;;;;;3.18;40.74;100291.72;5092679;28;865;-57
2022/01/26 10:34:01;;;;;;;;;;;;;;;2.84;41.73;100296.47;5091596;28;830;-57
2022/01/26 10:36:40;;;;;;;;;;;;;;;2.74;41.28;100288.72;5092369;28;961;-58
2022/01/26 10:39:07;;;;;;;;;;;;;;;2.76;41.39;100278.25;5092319;28;1898;-57
2022/01/26 10:41:35;;;;;;;;;;;;;;;2.85;42.33;100282.47;5091087;28;1199;-58
2022/01/26 10:44:02;;;;;;;;;;;;;;;2.95;41.83;100292.16;5092336;28;862;-58
2022/01/26 10:46:38;;;;;;;;;;;;;;;3.06;41.80;100290.59;5092245;28;917;-58
2022/01/26 10:54:27;;;;;;;;;;;;;;;2.92;42.13;100276.44;5092171;28;683;-57
2022/01/26 10:56:54;;;;;;;;;;;;;;;2.68;42.41;100282.66;5092283;28;1926;-58
2022/01/26 10:59:20;;;;;;;;;;;;;;;2.49;43.05;100271.47;5092623;28;854;-57
2022/01/26 11:01:48;;;;;;;;;;;;;;;2.36;42.80;100270.63;5090809;28;2058;-57
2022/01/26 11:04:14;;;;;;;;;;;;;;;2.29;43.03;100265.72;5092035;28;813;-57
2022/01/26 11:06:42;;;;;;;;;;;;;;;2.32;43.78;100272.44;5092099;28;841;-57
2022/01/26 11:09:13;;;;;;;;;;;;;;;2.27;43.44;100269.94;5092188;28;940;-57
2022/01/26 11:11:40;;;;;;;;;;;;;;;2.39;43.97;100259.03;5091996;28;814;-57
2022/01/26 11:14:14;;;;;;;;;;;;;;;2.40;42.90;100263.38;5091873;28;853;-57
2022/01/26 11:16:50;;;;;;;;;;;;;;;2.50;43.07;100262.97;5091465;28;1111;-56
2022/01/26 11:19:16;;;;;;;;;;;;;;;2.66;43.58;100263.09;5090566;28;881;-56
2022/01/26 11:21:43;;;;;;;;;;;;;;;2.56;43.97;100258.88;5091964;28;916;-56
2022/01/26 11:24:18;;;;;;;;;;;;;;;2.43;44.11;100249.03;5091832;28;787;-56
2022/01/26 11:26:47;;;;;;;;;;;;;;;2.44;44.80;100250.66;5091592;28;896;-56
2022/01/26 11:29:18;;;;;;;;;;;;;;;2.41;43.68;100251.31;5091759;28;929;-56
2022/01/26 11:31:45;;;;;;;;;;;;;;;2.56;43.83;100239.78;5091667;28;830;-58
2022/01/26 11:34:12;;;;;;;;;;;;;;;2.67;44.56;100259.25;5091603;28;868;-57
2022/01/26 11:36:42;;;;;;;;;;;;;;;3.01;44.29;100262.72;5091649;28;837;-58
2022/01/26 11:45:08;;;;;;;;;;;;;;;2.88;43.70;100258.34;5091765;28;676;-56
2022/01/26 11:47:36;;;;;;;;;;;;;;;2.93;44.02;100247.22;5095975;28;937;-57
2022/01/26 11:50:09;;;;;;;;;;;;;;;3.00;43.62;100244.72;5095589;28;978;-56
2022/01/26 11:52:38;;;;;;;;;;;;;;;3.09;43.31;100252.81;5095726;28;858;-57
2022/01/26 11:55:31;;;;;;;;;;;;;;;3.15;43.56;100232.31;5095661;28;870;-57
2022/01/26 11:58:11;;;;;;;;;;;;;;;3.27;43.52;100240.53;5095403;28;1885;-57
2022/01/26 12:00:43;;;;;;;;;;;;;;;3.41;43.06;100235.47;5095783;28;818;-57
2022/01/26 12:03:20;;;;;;;;;;;;;;;3.35;42.44;100239.63;5095402;28;878;-57
2022/01/26 12:05:47;;;;;;;;;;;;;;;3.39;42.25;100236.97;5095656;28;823;-57
2022/01/26 12:08:14;;;;;;;;;;;;;;;3.29;42.18;100240.97;5095436;28;946;-57
2022/01/26 12:10:43;;;;;;;;;;;;;;;3.12;42.47;100238.47;5095434;28;916;-57
2022/01/26 12:13:11;;;;;;;;;;;;;;;3.12;42.52;100241.22;5095351;28;893;-58
2022/01/26 12:15:44;;;;;;;;;;;;;;;3.18;43.04;100237.09;5094878;28;1204;-57
2022/01/26 12:18:32;;;;;;;;;;;;;;;3.29;42.57;100235.50;5093826;28;1938;-57
2022/01/26 12:34:59;;;;;;;;;;;;;;;2.66;42.43;100227.63;5095137;28;629;-56
2022/01/26 12:42:58;;;;;;;;;;;;;;;2.64;42.65;100224.44;5095023;28;657;-57
2022/01/26 12:45:26;;;;;;;;;;;;;;;2.63;43.39;100228.31;5094744;28;2056;-58
2022/01/26 12:47:56;;;;;;;;;;;;;;;2.59;42.54;100224.66;5093333;28;1690;-58
2022/01/26 12:50:23;;;;;;;;;;;;;;;2.32;43.40;100221.41;5094657;28;799;-58
2022/01/26 12:52:51;;;;;;;;;;;;;;;2.26;44.14;100225.47;5094530;28;818;-58
2022/01/26 12:55:21;;;;;;;;;;;;;;;2.34;43.34;100221.06;5094484;28;938;-56
2022/01/26 12:57:48;;;;;;;;;;;;;;;2.41;44.09;100222.13;5093175;28;1886;-56
2022/01/26 13:00:15;;;;;;;;;;;;;;;2.48;43.77;100232.47;5094393;28;858;-56
2022/01/26 13:02:41;;;;;;;;;;;;;;;2.53;43.79;100228.72;5094302;28;913;-56
2022/01/26 13:05:08;;;;;;;;;;;;;;;2.53;43.54;100223.28;5094208;28;940;-56
2022/01/26 13:07:35;;;;;;;;;;;;;;;2.65;43.61;100229.56;5094197;28;912;-57
2022/01/26 13:10:01;;;;;;;;;;;;;;;2.65;43.89;100226.03;5094340;28;837;-57
2022/01/26 13:12:29;;;;;;;;;;;;;;;2.53;43.47;100226.00;5094352;28;857;-58
2022/01/26 13:15:25;;;;;;;;;;;;;;;2.30;43.91;100231.06;5093896;28;1063;-58
2022/01/26 13:18:05;;;;;;;;;;;;;;;2.03;44.81;100231.31;5094070;28;2087;-57
2022/01/26 13:23:25;;;;;;;;;;;;;;;1.93;45.92;100239.09;5093900;28;813;-58
2022/01/26 13:38:47;;;;;;;;;;;;;;;2.12;46.15;100244.06;5093607;28;1886;-58
2022/01/26 13:49:27;;;;;;;;;;;;;;;2.21;45.95;100255.69;5121746;27;616;-57
2022/01/26 13:59:45;;;;;;;;;;;;;;;1.84;46.23;100250.84;5093185;28;806;-57
2022/01/26 14:02:12;;;;;;;;;;;;;;;1.83;47.11;100249.28;5093168;28;925;-58
2022/01/26 14:04:39;;;;;;;;;;;;;;;1.89;47.21;100258.03;5093049;28;913;-58
2022/01/26 14:07:06;;;;;;;;;;;;;;;1.90;46.74;100258.81;5093013;28;1056;-57
2022/01/26 14:09:33;;;;;;;;;;;;;;;1.91;47.19;100263.16;5092862;28;803;-57
2022/01/26 14:12:01;;;;;;;;;;;;;;;1.92;47.23;100270.19;5093173;28;921;-58
2022/01/26 14:14:37;;;;;;;;;;;;;;;1.72;48.03;100260.91;5092893;28;908;-57
2022/01/26 14:17:14;;;;;;;;;;;;;;;1.59;48.66;100265.47;5092462;28;1985;-58
2022/01/26 14:27:05;;;;;;;;;;;;;;;1.30;49.43;100258.91;5092709;28;735;-57
2022/01/26 14:32:25;;;;;;;;;;;;;;;1.30;49.60;100264.38;5092820;28;684;-57
2022/01/26 14:51:16;;;;;;;;;;;;;;;1.12;51.32;100271.81;5120554;27;663;-57
2022/01/26 15:00:04;;;;;;;;;;;;;;;1.07;51.33;100273.91;5092217;28;688;-57
2022/01/26 15:32:13;;;;;;;;;;;;;;;0.61;53.68;100287.19;5092038;28;629;-57
2022/01/26 15:44:51;;;;;;;;;;;;;;;0.53;54.59;100296.94;5091589;28;750;-57
2022/01/26 15:50:24;;;;;;;;;;;;;;;0.56;54.96;100290.88;5091484;28;613;-57
2022/01/26 15:53:03;;;;;;;;;;;;;;;0.63;55.04;100295.81;5091462;28;932;-57
2022/01/26 16:06:22;;;;;;;;;;;;;;;0.44;55.65;100312.50;5091740;28;664;-57
2022/01/26 16:35:44;;;;;;;;;;;;;;;0.71;56.33;100324.94;5072770;28;680;-57
2022/01/26 16:38:46;;;;;;;;;;;;;;;0.72;55.61;100331.19;5072317;28;1953;-57
2022/01/26 17:11:07;;;;;;;;;;;;;;;0.84;56.13;100317.72;5080843;28;1193;-57
2022/01/26 17:47:03;;;;;;;;;;;;;;;1.40;54.78;100344.91;5113922;28;617;-57
2022/01/26 17:55:19;;;;;;;;;;;;;;;1.37;55.26;100343.63;5113793;28;648;-57
2022/01/26 18:15:17;;;;;;;;;;;;;;;1.07;66.25;100389.06;5113333;28;624;-57
2022/01/26 18:17:42;;;;;;;;;;;;;;;0.05;73.11;100390.38;5113006;27;1914;-58
2022/01/26 18:49:25;;;;;;;;;;;;;;;-0.01;70.27;100387.00;5112602;28;887;-57
2022/01/26 18:51:53;;;;;;;;;;;;;;;-0.11;70.38;100386.50;5112654;28;913;-57
2022/01/26 18:54:23;;;;;;;;;;;;;;;-0.09;70.00;100378.84;5112153;28;901;-57
2022/01/26 18:56:51;;;;;;;;;;;;;;;-0.10;70.23;100355.50;5112142;28;1047;-58
2022/01/26 18:59:18;;;;;;;;;;;;;;;-0.05;70.69;100368.94;5094153;28;1889;-58
2022/01/26 19:01:45;;;;;;;;;;;;;;;-0.02;70.17;100355.50;5112683;28;802;-56
2022/01/26 19:04:11;;;;;;;;;;;;;;;0.11;69.37;100350.25;5128225;27;1523;-57
2022/01/26 19:06:40;;;;;;;;;;;;;;;0.20;69.24;100346.41;5112319;28;909;-58
2022/01/26 19:09:07;;;;;;;;;;;;;;;0.25;69.26;100350.09;5112229;28;854;-56
2022/01/26 19:11:34;;;;;;;;;;;;;;;0.35;68.59;100336.97;5112421;28;862;-57
2022/01/26 19:19:46;;;;;;;;;;;;;;;0.69;66.08;100337.28;5112163;28;1905;-57
2022/01/26 19:25:13;;;;;;;;;;;;;;;0.80;65.67;100346.69;5112458;28;1207;-57
2022/01/26 19:27:51;;;;;;;;;;;;;;;0.80;65.05;100346.69;5112091;28;941;-57
2022/01/26 19:33:27;;;;;;;;;;;;;;;1.00;63.36;100340.56;5112660;28;625;-56
2022/01/26 19:54:31;;;;;;;;;;;;;;;1.22;62.58;100379.59;5112187;28;680;-57
2022/01/26 19:56:58;;;;;;;;;;;;;;;1.22;62.01;100379.59;5111830;28;858;-57
2022/01/26 19:59:24;;;;;;;;;;;;;;;1.32;61.00;100394.75;5093474;28;1929;-57
2022/01/26 20:01:50;;;;;;;;;;;;;;;1.38;60.88;100379.84;5111769;28;811;-57
2022/01/26 20:04:16;;;;;;;;;;;;;;;1.36;60.68;100385.59;5093463;28;1207;-58
2022/01/26 20:06:44;;;;;;;;;;;;;;;1.33;61.08;100375.38;5113464;28;852;-57
2022/01/26 20:09:18;;;;;;;;;;;;;;;1.34;61.29;100376.94;5115715;28;926;-57
2022/01/26 20:11:55;;;;;;;;;;;;;;;1.38;60.75;100379.84;5097584;28;864;-57